| time (UTC) | temp F | wind direction | speed knots | gust knots | rain 1hr in | rain 24hr in | rain mn in | humidity % | barometer mb |
| 20260507135016 | 66 | 135 | 0.9 | 3.5 | 0.00 | 0.00 | 0.00 | 62 | 1012.0 |
| 20260507134016 | 66 | 113 | 0.9 | 2.6 | 0.00 | 0.00 | 0.00 | 61 | 1012.0 |
| 20260507133016 | 67 | 135 | 0.9 | 2.6 | 0.00 | 0.00 | 0.00 | 59 | 1012.2 |
| 20260507132016 | 67 | 113 | 0.9 | 4.3 | 0.00 | 0.00 | 0.00 | 57 | 1012.3 |
| 20260507131016 | 67 | 113 | 1.7 | 3.5 | 0.00 | 0.00 | 0.00 | 55 | 1012.3 |
| 20260507130016 | 68 | 113 | 0.9 | 4.3 | 0.00 | 0.00 | 0.00 | 55 | 1012.3 |
| 20260507125016 | 68 | 113 | 2.6 | 6.1 | 0.00 | 0.00 | 0.00 | 53 | 1012.3 |
| 20260507124016 | 69 | 135 | 0.9 | 2.6 | 0.00 | 0.00 | 0.00 | 56 | 1012.2 |
| 20260507123016 | 68 | 113 | 1.7 | 7.0 | 0.00 | 0.00 | 0.00 | 55 | 1012.2 |
| 20260507122016 | 67 | 203 | 0.9 | 2.6 | 0.00 | 0.00 | 0.00 | 57 | 1012.2 |
| 20260507121016 | 68 | 113 | 1.7 | 6.1 | 0.00 | 0.00 | 0.00 | 58 | 1012.1 |
| 20260507120016 | 67 | 113 | 1.7 | 4.3 | 0.00 | 0.00 | 0.00 | 60 | 1012.0 |
| 20260507115016 | 67 | 90 | 1.7 | 3.5 | 0.00 | 0.00 | 0.00 | 59 | 1011.9 |
| 20260507114015 | 67 | 113 | 1.7 | 3.5 | 0.00 | 0.00 | 0.00 | 60 | 1011.8 |
| 20260507113056 | 67 | 113 | 1.7 | 6.1 | 0.00 | 0.00 | 0.00 | 60 | 1011.9 |
| 20260507112016 | 66 | 113 | 1.7 | 6.1 | 0.00 | 0.00 | 0.00 | 63 | 1012.0 |
| 20260507111015 | 67 | 113 | 0.9 | 6.1 | 0.00 | 0.00 | 0.00 | 61 | 1012.1 |
| 20260507110036 | 68 | 113 | 0.9 | 5.2 | 0.00 | 0.00 | 0.00 | 60 | 1012.0 |
| 20260507105015 | 69 | 113 | 1.7 | 6.1 | 0.00 | 0.00 | 0.00 | 59 | 1012.2 |
| 20260507104035 | 69 | 113 | 1.7 | 6.1 | 0.00 | 0.00 | 0.00 | 59 | 1012.3 |
| 20260507103016 | 69 | 225 | 2.6 | 6.1 | 0.00 | 0.00 | 0.00 | 58 | 1012.4 |
| 20260507102015 | 68 | 113 | 1.7 | 6.1 | 0.00 | 0.00 | 0.00 | 59 | 1012.4 |
| 20260507101035 | 68 | 225 | 2.6 | 5.2 | 0.00 | 0.00 | 0.00 | 61 | 1012.4 |
| 20260507100016 | 68 | 113 | 1.7 | 5.2 | 0.00 | 0.00 | 0.00 | 62 | 1012.4 |
| 20260507095016 | 67 | 113 | 1.7 | 3.5 | 0.00 | 0.00 | 0.00 | 63 | 1012.5 |
| 20260507094017 | 67 | 90 | 0.9 | 4.3 | 0.00 | 0.00 | 0.00 | 61 | 1012.5 |
| 20260507093016 | 68 | 90 | 1.7 | 4.3 | 0.00 | 0.00 | 0.00 | 60 | 1012.5 |
| 20260507092017 | 68 | 113 | 1.7 | 3.5 | 0.00 | 0.00 | 0.00 | 56 | 1012.3 |
| 20260507091019 | 68 | 113 | 1.7 | 7.0 | 0.00 | 0.00 | 0.00 | 54 | 1012.3 |
| 20260507090037 | 68 | 113 | 1.7 | 6.1 | 0.00 | 0.00 | 0.00 | 52 | 1012.3 |
| 20260507085059 | 67 | 113 | 1.7 | 6.1 | 0.00 | 0.00 | 0.00 | 51 | 1012.3 |
| 20260507084058 | 67 | 135 | 0.9 | 4.3 | 0.00 | 0.00 | 0.00 | 52 | 1012.3 |
| 20260507083017 | 67 | 203 | 0.9 | 4.3 | 0.00 | 0.00 | 0.00 | 52 | 1012.2 |
| 20260507082017 | 66 | 113 | 0.9 | 4.3 | 0.00 | 0.00 | 0.00 | 54 | 1012.2 |
| 20260507081017 | 66 | 113 | 1.7 | 6.1 | 0.00 | 0.00 | 0.00 | 54 | 1012.2 |
| 20260507080015 | 65 | 113 | 0.9 | 3.5 | 0.00 | 0.00 | 0.00 | 53 | 1012.3 |
| 20260507075058 | 65 | 135 | 1.7 | 4.3 | 0.00 | 0.00 | 0.00 | 54 | 1012.3 |
| 20260507074017 | 64 | 113 | 0.9 | 2.6 | 0.00 | 0.00 | 0.00 | 54 | 1012.4 |
| 20260507073017 | 64 | 225 | 0.9 | 3.5 | 0.00 | 0.00 | 0.00 | 52 | 1012.4 |
| 20260507072017 | 63 | 203 | 0.9 | 3.5 | 0.00 | 0.00 | 0.00 | 55 | 1012.2 |
| 20260507071018 | 61 | 0.0 | 0.9 | 0.00 | 0.00 | 0.00 | 63 | 1012.0 | |
| 20260507070017 | 60 | 135 | 0.9 | 1.7 | 0.00 | 0.00 | 0.00 | 66 | 1011.8 |
| 20260507065017 | 57 | 0.0 | 0.9 | 0.00 | 0.00 | 0.00 | 70 | 1011.7 | |
| 20260507064017 | 56 | 0.0 | 0.0 | 0.00 | 0.00 | 0.00 | 72 | 1011.6 | |
| 20260507063017 | 55 | 0.0 | 0.0 | 0.00 | 0.01 | 0.00 | 73 | 1011.5 | |
| 20260507062017 | 55 | 113 | 0.9 | 2.6 | 0.00 | 0.02 | 0.00 | 76 | 1011.3 |
| 20260507061017 | 54 | 0.0 | 0.0 | 0.00 | 0.03 | 0.00 | 75 | 1011.1 | |
| 20260507060017 | 53 | 0.0 | 0.9 | 0.00 | 0.05 | 0.00 | 75 | 1011.2 | |
| 20260507055017 | 52 | 0.0 | 1.7 | 0.00 | 0.05 | 0.00 | 77 | 1011.2 | |
| 20260507054038 | 51 | 0.0 | 0.0 | 0.00 | 0.05 | 0.00 | 77 | 1010.9 | |
| 20260507053037 | 50 | 0.0 | 0.0 | 0.00 | 0.05 | 0.00 | 78 | 1010.9 | |
| 20260507052037 | 50 | 0.0 | 0.0 | 0.00 | 0.05 | 0.00 | 79 | 1010.8 | |
| 20260507051018 | 50 | 0.0 | 0.0 | 0.00 | 0.05 | 0.00 | 79 | 1010.6 | |
| 20260507050017 | 50 | 0.0 | 0.0 | 0.00 | 0.05 | 0.00 | 78 | 1010.7 | |
| 20260507045017 | 50 | 0.0 | 0.0 | 0.00 | 0.05 | 0.00 | 77 | 1010.6 | |
| 20260507044018 | 50 | 0.0 | 0.0 | 0.00 | 0.05 | 0.00 | 77 | 1010.6 | |
| 20260507043017 | 50 | 0.0 | 0.0 | 0.00 | 0.05 | 0.00 | 77 | 1010.5 | |
| 20260507042016 | 50 | 0.0 | 0.0 | 0.00 | 0.05 | 0.00 | 77 | 1010.3 | |
| 20260507041017 | 50 | 0.0 | 0.0 | 0.00 | 0.05 | 0.00 | 76 | 1010.3 | |
| 20260507040017 | 50 | 0.0 | 0.0 | 0.00 | 0.05 | 0.00 | 75 | 1010.2 | |
| 20260507035018 | 51 | 0.0 | 0.9 | 0.00 | 0.05 | 0.00 | 76 | 1010.2 | |
| 20260507034036 | 51 | 0.0 | 0.0 | 0.00 | 0.05 | 0.00 | 76 | 1010.2 | |
| 20260507033017 | 51 | 0.0 | 0.0 | 0.00 | 0.05 | 0.00 | 76 | 1010.2 | |
| 20260507032037 | 51 | 0.0 | 0.0 | 0.00 | 0.05 | 0.00 | 76 | 1010.1 | |
| 20260507031017 | 51 | 0.0 | 0.0 | 0.00 | 0.05 | 0.00 | 76 | 1010.2 | |
| 20260507030016 | 51 | 0.0 | 0.0 | 0.00 | 0.06 | 0.00 | 77 | 1010.2 | |
| 20260507025016 | 51 | 0.0 | 0.0 | 0.00 | 0.07 | 0.00 | 78 | 1010.3 | |
| 20260507024016 | 51 | 0.0 | 0.0 | 0.00 | 0.09 | 0.00 | 78 | 1010.3 | |
| 20260507023016 | 51 | 0.0 | 0.0 | 0.00 | 0.10 | 0.00 | 79 | 1010.2 | |
| 20260507022017 | 51 | 0.0 | 0.0 | 0.00 | 0.11 | 0.00 | 79 | 1010.2 | |
| 20260507021016 | 51 | 0.0 | 0.0 | 0.00 | 0.14 | 0.00 | 80 | 1010.1 | |
| 20260507020016 | 51 | 0.0 | 0.9 | 0.00 | 0.20 | 0.00 | 80 | 1010.0 | |
| 20260507015016 | 51 | 0.0 | 0.0 | 0.00 | 0.24 | 0.00 | 80 | 1009.9 | |
| 20260507014036 | 51 | 0.0 | 0.0 | 0.00 | 0.25 | 0.00 | 79 | 1009.9 | |
| 20260507013016 | 51 | 0.0 | 0.0 | 0.00 | 0.25 | 0.00 | 79 | 1009.9 | |
| 20260507012018 | 52 | 0.0 | 1.7 | 0.00 | 0.25 | 0.00 | 79 | 1009.9 | |
| 20260507011016 | 52 | 0.0 | 0.0 | 0.00 | 0.26 | 0.00 | 78 | 1010.0 | |
| 20260507010016 | 52 | 0.0 | 0.0 | 0.00 | 0.26 | 0.00 | 78 | 1009.8 | |
| 20260507005016 | 52 | 0.0 | 0.0 | 0.00 | 0.28 | 0.00 | 77 | 1009.9 | |
| 20260507004016 | 53 | 0.0 | 0.0 | 0.00 | 0.28 | 0.00 | 77 | 1010.0 | |
| 20260507003017 | 53 | 0.0 | 0.0 | 0.00 | 0.28 | 0.00 | 77 | 1009.9 | |
| 20260507002016 | 53 | 0.0 | 1.7 | 0.00 | 0.28 | 0.00 | 77 | 1009.9 | |
| 20260507001016 | 53 | 0.0 | 0.0 | 0.00 | 0.28 | 0.00 | 77 | 1009.8 | |
| 20260507000016 | 53 | 0.0 | 0.9 | 0.00 | 0.28 | 0.00 | 78 | 1009.8 | |
| 20260506235016 | 53 | 0.0 | 0.0 | 0.00 | 0.28 | 0.00 | 78 | 1009.7 | |
| 20260506234016 | 53 | 0.0 | 0.9 | 0.00 | 0.28 | 0.00 | 78 | 1009.9 | |
| 20260506233038 | 53 | 0.0 | 0.0 | 0.00 | 0.28 | 0.00 | 77 | 1009.9 | |
| 20260506232016 | 53 | 0.0 | 0.0 | 0.00 | 0.28 | 0.00 | 77 | 1009.9 | |
| 20260506231016 | 53 | 0.0 | 0.0 | 0.00 | 0.28 | 0.00 | 77 | 1009.9 | |
| 20260506230016 | 53 | 0.0 | 0.0 | 0.00 | 0.31 | 0.00 | 77 | 1009.9 | |
| 20260506225016 | 53 | 0.0 | 0.0 | 0.00 | 0.37 | 0.00 | 76 | 1009.8 | |
| 20260506224016 | 54 | 0.0 | 0.0 | 0.00 | 0.44 | 0.00 | 76 | 1009.8 | |
| 20260506223036 | 54 | 0.0 | 0.9 | 0.00 | 0.50 | 0.00 | 76 | 1009.7 | |
| 20260506222016 | 54 | 0.0 | 0.0 | 0.00 | 0.54 | 0.00 | 75 | 1009.6 | |
| 20260506221016 | 54 | 0.0 | 0.9 | 0.00 | 0.59 | 0.00 | 75 | 1009.6 | |
| 20260506220016 | 54 | 0.0 | 0.0 | 0.00 | 0.65 | 0.65 | 75 | 1009.5 | |
| 20260506215016 | 54 | 0.0 | 0.0 | 0.00 | 0.68 | 0.65 | 74 | 1009.5 | |
| 20260506214015 | 55 | 0.0 | 0.0 | 0.00 | 0.69 | 0.65 | 74 | 1009.4 | |
| 20260506213057 | 55 | 0.0 | 0.0 | 0.00 | 0.69 | 0.65 | 72 | 1009.4 | |
| 20260506212015 | 55 | 0.0 | 0.0 | 0.00 | 0.69 | 0.65 | 73 | 1009.4 | |
| 20260506211136 | 55 | 0.0 | 1.7 | 0.00 | 0.69 | 0.65 | 73 | 1009.3 | |
| 20260506210017 | 55 | 0.0 | 0.9 | 0.00 | 0.69 | 0.65 | 72 | 1009.3 | |
| 20260506205016 | 56 | 0.0 | 0.0 | 0.00 | 0.69 | 0.65 | 72 | 1009.4 | |
| 20260506204036 | 56 | 0.0 | 0.9 | 0.00 | 0.69 | 0.65 | 71 | 1009.2 | |
| 20260506203015 | 57 | 0.0 | 0.0 | 0.00 | 0.69 | 0.65 | 70 | 1009.1 | |
| 20260506202015 | 58 | 0.0 | 0.9 | 0.00 | 0.69 | 0.65 | 69 | 1008.9 | |
| 20260506201035 | 58 | 0.0 | 0.0 | 0.00 | 0.69 | 0.65 | 67 | 1009.0 | |
| 20260506200036 | 59 | 0.0 | 0.9 | 0.00 | 0.69 | 0.65 | 65 | 1008.8 | |
| 20260506195017 | 60 | 0.0 | 0.0 | 0.00 | 0.69 | 0.65 | 64 | 1008.7 | |
| 20260506194016 | 61 | 0.0 | 0.0 | 0.00 | 0.69 | 0.65 | 62 | 1008.5 | |
| 20260506193017 | 62 | 0.0 | 0.9 | 0.00 | 0.69 | 0.65 | 61 | 1008.4 | |
| 20260506192019 | 62 | 0.0 | 0.0 | 0.00 | 0.69 | 0.65 | 58 | 1008.1 | |
| 20260506191017 | 63 | 0.0 | 1.7 | 0.00 | 0.69 | 0.65 | 56 | 1007.9 | |
| 20260506190019 | 63 | 315 | 0.9 | 5.2 | 0.00 | 0.69 | 0.65 | 56 | 1007.7 |
| 20260506185017 | 63 | 270 | 0.9 | 4.3 | 0.00 | 0.69 | 0.65 | 56 | 1007.5 |
| 20260506184037 | 63 | 293 | 0.9 | 7.0 | 0.00 | 0.69 | 0.65 | 56 | 1007.4 |
| 20260506183017 | 63 | 270 | 0.9 | 7.0 | 0.00 | 0.69 | 0.65 | 56 | 1007.4 |
| 20260506182018 | 63 | 315 | 0.9 | 1.7 | 0.00 | 0.69 | 0.65 | 56 | 1007.4 |
| 20260506181017 | 63 | 248 | 0.9 | 5.2 | 0.00 | 0.69 | 0.65 | 56 | 1007.4 |
| 20260506180019 | 64 | 248 | 0.9 | 1.7 | 0.00 | 0.69 | 0.65 | 55 | 1007.3 |
| 20260506175037 | 64 | 248 | 0.9 | 2.6 | 0.00 | 0.69 | 0.65 | 53 | 1007.3 |
| 20260506174017 | 65 | 270 | 0.9 | 1.7 | 0.00 | 0.69 | 0.65 | 52 | 1007.3 |
| 20260506173017 | 66 | 0.0 | 2.6 | 0.00 | 0.69 | 0.65 | 50 | 1007.2 | |
| 20260506172017 | 67 | 225 | 0.9 | 3.5 | 0.00 | 0.69 | 0.65 | 47 | 1007.1 |
| 20260506171017 | 68 | 225 | 0.9 | 3.5 | 0.00 | 0.69 | 0.65 | 46 | 1007.1 |
| 20260506170039 | 69 | 248 | 0.9 | 3.5 | 0.00 | 0.69 | 0.65 | 45 | 1007.1 |
| 20260506165018 | 70 | 248 | 0.9 | 6.1 | 0.00 | 0.69 | 0.65 | 43 | 1007.1 |
| 20260506164017 | 70 | 203 | 1.7 | 6.1 | 0.00 | 0.69 | 0.65 | 42 | 1007.1 |
| 20260506163017 | 70 | 248 | 0.9 | 4.3 | 0.00 | 0.69 | 0.65 | 44 | 1007.0 |
| 20260506162017 | 70 | 225 | 1.7 | 5.2 | 0.00 | 0.69 | 0.65 | 43 | 1007.0 |
| 20260506161017 | 70 | 113 | 1.7 | 5.2 | 0.00 | 0.69 | 0.65 | 42 | 1007.0 |
| 20260506160017 | 70 | 248 | 1.7 | 8.7 | 0.00 | 0.69 | 0.65 | 43 | 1007.0 |
| 20260506155017 | 71 | 158 | 1.7 | 7.8 | 0.00 | 0.69 | 0.65 | 42 | 1007.0 |
| 20260506154017 | 71 | 113 | 1.7 | 7.8 | 0.00 | 0.69 | 0.65 | 43 | 1007.0 |
| 20260506153017 | 71 | 113 | 2.6 | 7.8 | 0.00 | 0.69 | 0.65 | 43 | 1006.9 |
| 20260506152037 | 72 | 113 | 2.6 | 7.8 | 0.00 | 0.69 | 0.65 | 43 | 1006.9 |
| 20260506151017 | 72 | 203 | 1.7 | 7.8 | 0.00 | 0.69 | 0.65 | 43 | 1006.8 |
| 20260506150016 | 71 | 203 | 1.7 | 5.2 | 0.00 | 0.69 | 0.65 | 41 | 1007.0 |
| 20260506145037 | 71 | 113 | 3.5 | 9.6 | 0.00 | 0.69 | 0.65 | 40 | 1007.0 |
| 20260506144016 | 71 | 225 | 3.5 | 9.6 | 0.00 | 0.69 | 0.65 | 41 | 1007.1 |
| 20260506143037 | 71 | 225 | 3.5 | 12.2 | 0.00 | 0.69 | 0.65 | 40 | 1007.1 |
| 20260506142037 | 71 | 203 | 2.6 | 11.3 | 0.00 | 0.69 | 0.65 | 41 | 1007.1 |
| 20260506141016 | 71 | 90 | 2.6 | 14.8 | 0.00 | 0.69 | 0.65 | 42 | 1007.1 |
| 20260506140016 | 71 | 248 | 2.6 | 7.8 | 0.00 | 0.69 | 0.65 | 43 | 1007.1 |